createdAt,value
2019-02-19T00:00:33.918Z,62.78
2019-02-19T00:01:33.874Z,62.99
2019-02-19T00:02:33.857Z,62.47
2019-02-19T00:03:33.857Z,62.47
2019-02-19T00:04:33.842Z,62.57
2019-02-19T00:05:33.862Z,62.37
2019-02-19T00:06:33.811Z,62.88
2019-02-19T00:07:33.826Z,62.57
2019-02-19T00:08:33.818Z,63.12
2019-02-19T00:09:33.788Z,63.43
2019-02-19T00:10:33.802Z,62.92
2019-02-19T00:11:33.802Z,63.53
2019-02-19T00:12:33.750Z,63.95
2019-02-19T00:13:33.732Z,63.64
2019-02-19T00:14:33.728Z,63.64
2019-02-19T00:15:33.748Z,63.74
2019-02-19T00:16:33.737Z,63.43
2019-02-19T00:17:33.696Z,63.32
2019-02-19T00:18:33.686Z,63.12
2019-02-19T00:19:33.684Z,63.22
2019-02-19T00:20:33.664Z,63.22
2019-02-19T00:21:33.682Z,63.43
2019-02-19T00:22:33.717Z,63.43
2019-02-19T00:23:33.643Z,63.64
2019-02-19T00:24:33.612Z,63.64
2019-02-19T00:25:33.610Z,63.22
2019-02-19T00:26:33.628Z,63.01
2019-02-19T00:27:34.060Z,63.74
2019-02-19T00:28:33.571Z,63.64
2019-02-19T00:29:33.577Z,63.74
2019-02-19T00:30:33.555Z,63.84
2019-02-19T00:31:33.568Z,63.64
2019-02-19T00:32:33.534Z,62.74
2019-02-19T00:33:33.525Z,63.67
2019-02-19T00:34:33.550Z,63.67
2019-02-19T00:35:33.498Z,63.77
2019-02-19T00:36:33.535Z,63.53
2019-02-19T00:37:33.468Z,63.87
2019-02-19T00:38:33.458Z,63.77
2019-02-19T00:39:33.453Z,63.43
2019-02-19T00:40:33.442Z,63.74
2019-02-19T00:41:33.426Z,63.04
2019-02-19T00:42:33.446Z,63.56
2019-02-19T00:43:33.443Z,63.84
2019-02-19T00:44:33.406Z,63.67
2019-02-19T00:45:33.405Z,63.46
2019-02-19T00:46:33.395Z,63.32
2019-02-19T00:47:33.400Z,63.77
2019-02-19T00:48:33.386Z,63.67
2019-02-19T00:49:33.391Z,63.35
2019-02-19T00:50:33.329Z,63.35
2019-02-19T00:51:33.317Z,63.35
2019-02-19T00:52:33.346Z,63.87
2019-02-19T00:53:33.297Z,63.25
2019-02-19T00:54:33.294Z,63.77
2019-02-19T00:55:33.273Z,63.04
2019-02-19T00:56:33.262Z,63.56
2019-02-19T00:57:33.305Z,63.77
2019-02-19T00:58:33.248Z,64.18
2019-02-19T00:59:33.292Z,64.59
2019-02-19T01:00:33.215Z,63.67
2019-02-19T01:01:33.214Z,64.21
2019-02-19T01:02:33.243Z,63.67
2019-02-19T01:03:33.180Z,63.77
2019-02-19T01:04:33.169Z,64.28
2019-02-19T01:05:33.180Z,63.97
2019-02-19T01:06:33.147Z,64.39
2019-02-19T01:07:33.144Z,64.62
2019-02-19T01:08:33.190Z,64.28
2019-02-19T01:09:33.133Z,64.07
2019-02-19T01:10:33.130Z,64.62
2019-02-19T01:11:33.101Z,64.18
2019-02-19T01:12:33.122Z,63.97
2019-02-19T01:13:33.115Z,64.59
2019-02-19T01:14:33.068Z,64.07
2019-02-19T01:15:33.064Z,64.18
2019-02-19T01:16:33.041Z,63.77
2019-02-19T01:17:33.082Z,64.18
2019-02-19T01:18:33.012Z,63.67
2019-02-19T01:19:33.011Z,63.56
2019-02-19T01:20:32.999Z,64.70
2019-02-19T01:21:33.033Z,64.59
2019-02-19T01:22:32.976Z,64.70
2019-02-19T01:23:32.957Z,63.77
2019-02-19T01:24:32.975Z,64.07
2019-02-19T01:25:32.930Z,64.07
2019-02-19T01:26:32.950Z,64.28
2019-02-19T01:27:32.920Z,63.77
2019-02-19T01:28:32.929Z,63.97
2019-02-19T01:29:32.940Z,63.46
2019-02-19T01:30:32.879Z,63.49
2019-02-19T01:31:32.877Z,64.31
2019-02-19T01:32:32.856Z,64.28
2019-02-19T01:33:32.935Z,64.07
2019-02-19T01:34:32.834Z,64.31
2019-02-19T01:35:32.904Z,64.59
2019-02-19T01:36:32.815Z,64.21
2019-02-19T01:37:32.798Z,63.90
2019-02-19T01:38:32.793Z,63.69
2019-02-19T01:39:32.818Z,64.31
2019-02-19T01:40:32.771Z,64.00
2019-02-19T01:41:32.819Z,64.31
2019-02-19T01:42:32.824Z,64.62
2019-02-19T01:43:32.752Z,64.21
2019-02-19T01:44:32.743Z,64.93
2019-02-19T01:45:34.344Z,63.69
2019-02-19T01:46:32.704Z,63.79
2019-02-19T01:47:32.758Z,63.79
2019-02-19T01:48:32.684Z,63.69
2019-02-19T01:49:32.674Z,63.79
2019-02-19T01:50:32.669Z,64.52
2019-02-19T01:51:32.653Z,64.52
2019-02-19T01:52:32.636Z,63.79
2019-02-19T01:53:32.666Z,64.83
2019-02-19T01:54:32.634Z,64.52
2019-02-19T01:55:32.605Z,64.52
2019-02-19T01:56:32.626Z,65.24
2019-02-19T01:57:32.583Z,64.73
2019-02-19T01:58:32.578Z,64.52
2019-02-19T01:59:32.573Z,65.14
2019-02-19T02:00:32.549Z,64.73
2019-02-19T02:01:32.537Z,63.69
2019-02-19T02:02:32.557Z,64.52
2019-02-19T02:03:32.520Z,64.62
2019-02-19T02:04:32.502Z,64.52
2019-02-19T02:05:32.496Z,64.52
2019-02-19T02:06:32.506Z,64.42
2019-02-19T02:07:32.528Z,64.52
2019-02-19T02:08:32.460Z,64.42
2019-02-19T02:09:32.462Z,64.00
2019-02-19T02:10:32.433Z,64.73
2019-02-19T02:11:32.441Z,64.21
2019-02-19T02:12:32.460Z,63.79
2019-02-19T02:13:32.436Z,63.79
2019-02-19T02:14:32.394Z,63.79
2019-02-19T02:15:32.385Z,63.90
2019-02-19T02:16:32.372Z,64.21
2019-02-19T02:17:32.355Z,64.11
2019-02-19T02:18:32.382Z,63.59
2019-02-19T02:19:32.346Z,64.93
2019-02-19T02:20:32.328Z,64.83
2019-02-19T02:21:32.319Z,64.31
2019-02-19T02:22:32.303Z,63.72
2019-02-19T02:23:32.335Z,63.93
2019-02-19T02:24:32.300Z,63.72
2019-02-19T02:25:32.277Z,63.62
2019-02-19T02:26:32.257Z,64.55
2019-02-19T02:27:32.245Z,64.55
2019-02-19T02:28:32.242Z,64.86
2019-02-19T02:29:32.276Z,64.86
2019-02-19T02:30:32.214Z,63.82
2019-02-19T02:31:32.233Z,63.82
2019-02-19T02:32:32.194Z,65.17
2019-02-19T02:33:32.178Z,64.76
2019-02-19T02:34:32.224Z,65.37
2019-02-19T02:35:32.179Z,64.86
2019-02-19T02:36:32.151Z,64.96
2019-02-19T02:37:32.141Z,64.96
2019-02-19T02:38:32.157Z,64.55
2019-02-19T02:39:32.167Z,64.76
2019-02-19T02:40:32.115Z,64.45
2019-02-19T02:41:32.119Z,64.45
2019-02-19T02:42:32.086Z,64.86
2019-02-19T02:43:32.083Z,64.24
2019-02-19T02:44:32.115Z,63.72
2019-02-19T02:45:32.055Z,64.86
2019-02-19T02:46:32.037Z,64.06
2019-02-19T02:47:32.032Z,64.68
2019-02-19T02:48:32.029Z,65.17
2019-02-19T02:49:32.010Z,65.06
2019-02-19T02:50:32.055Z,65.06
2019-02-19T02:51:31.987Z,64.86
2019-02-19T02:52:31.976Z,64.78
2019-02-19T02:53:31.971Z,64.96
2019-02-19T02:54:31.965Z,64.27
2019-02-19T02:55:31.969Z,64.89
2019-02-19T02:56:31.968Z,64.89
2019-02-19T02:57:31.953Z,64.89
2019-02-19T02:58:31.914Z,65.09
2019-02-19T02:59:31.895Z,65.30
2019-02-19T03:00:31.887Z,65.20
2019-02-19T03:01:31.924Z,65.30
2019-02-19T03:02:31.860Z,64.89
2019-02-19T03:03:31.877Z,65.41
2019-02-19T03:04:31.845Z,65.30
2019-02-19T03:05:31.832Z,64.99
2019-02-19T03:06:31.824Z,64.65
2019-02-19T03:07:31.849Z,64.68
2019-02-19T03:08:31.804Z,64.58
2019-02-19T03:09:31.805Z,64.48
2019-02-19T03:10:31.814Z,64.78
2019-02-19T03:11:31.793Z,64.78
2019-02-19T03:12:31.792Z,64.58
2019-02-19T03:13:31.758Z,64.99
2019-02-19T03:14:31.733Z,64.89
2019-02-19T03:15:31.733Z,65.51
2019-02-19T03:16:31.720Z,65.20
2019-02-19T03:17:31.759Z,64.58
2019-02-19T03:18:31.729Z,64.27
2019-02-19T03:19:31.690Z,65.30
2019-02-19T03:20:31.671Z,64.58
2019-02-19T03:21:31.664Z,64.68
2019-02-19T03:22:31.693Z,64.89
2019-02-19T03:23:31.655Z,64.92
2019-02-19T03:24:31.628Z,65.09
2019-02-19T03:25:31.609Z,64.99
2019-02-19T03:26:31.611Z,64.89
2019-02-19T03:27:31.590Z,64.99
2019-02-19T03:28:31.613Z,64.78
2019-02-19T03:29:31.598Z,64.58
2019-02-19T03:30:31.566Z,64.78
2019-02-19T03:31:31.545Z,64.78
2019-02-19T03:32:31.538Z,64.89
2019-02-19T03:33:31.567Z,64.48
2019-02-19T03:34:31.516Z,64.48
2019-02-19T03:35:31.517Z,64.37
2019-02-19T03:36:31.492Z,64.58
2019-02-19T03:37:31.508Z,64.58
2019-02-19T03:38:31.500Z,64.89
2019-02-19T03:39:31.508Z,64.68
2019-02-19T03:40:32.764Z,64.89
2019-02-19T03:41:31.477Z,64.78
2019-02-19T03:42:31.432Z,64.89
2019-02-19T03:43:31.417Z,64.99
2019-02-19T03:44:31.401Z,65.12
2019-02-19T03:45:31.444Z,65.41
2019-02-19T03:46:31.382Z,64.89
2019-02-19T03:47:31.406Z,64.68
2019-02-19T03:48:31.360Z,64.48
2019-02-19T03:49:31.443Z,64.78
2019-02-19T03:50:31.377Z,64.92
2019-02-19T03:51:31.326Z,64.92
2019-02-19T03:52:31.332Z,64.89
2019-02-19T03:53:31.309Z,64.78
2019-02-19T03:54:31.334Z,64.58
2019-02-19T03:55:31.328Z,64.68
2019-02-19T03:56:31.272Z,64.48
2019-02-19T03:57:31.270Z,64.48
2019-02-19T03:58:31.253Z,64.68
2019-02-19T03:59:31.251Z,64.37
2019-02-19T04:00:31.243Z,64.48
2019-02-19T04:01:31.256Z,64.81
2019-02-19T04:02:31.248Z,64.92
2019-02-19T04:03:31.204Z,64.51
2019-02-19T04:04:31.185Z,64.92
2019-02-19T04:05:31.210Z,64.92
2019-02-19T04:06:32.457Z,65.44
2019-02-19T04:07:31.190Z,65.02
2019-02-19T04:08:31.144Z,64.92
2019-02-19T04:09:31.182Z,65.02
2019-02-19T04:10:31.121Z,64.92
2019-02-19T04:11:31.153Z,65.02
2019-02-19T04:12:31.099Z,64.92
2019-02-19T04:13:31.089Z,64.81
2019-02-19T04:14:31.079Z,64.92
2019-02-19T04:15:31.090Z,64.92
2019-02-19T04:16:31.057Z,64.92
2019-02-19T04:17:31.102Z,64.92
2019-02-19T04:18:31.045Z,64.81
2019-02-19T04:19:31.024Z,64.81
2019-02-19T04:20:31.014Z,64.81
2019-02-19T04:21:31.007Z,64.92
2019-02-19T04:22:31.068Z,65.12
2019-02-19T04:23:30.975Z,64.92
2019-02-19T04:24:30.964Z,64.92
2019-02-19T04:25:30.974Z,65.02
2019-02-19T04:26:30.953Z,65.12
2019-02-19T04:27:30.942Z,65.02
2019-02-19T04:28:30.993Z,64.71
2019-02-19T04:29:30.910Z,65.02
2019-02-19T04:30:30.910Z,64.58
2019-02-19T04:31:31.846Z,64.71
2019-02-19T04:32:30.877Z,64.61
2019-02-19T04:33:30.915Z,64.71
2019-02-19T04:34:30.857Z,64.40
2019-02-19T04:35:30.903Z,64.51
2019-02-19T04:36:30.853Z,64.61
2019-02-19T04:37:30.856Z,64.61
2019-02-19T04:38:30.833Z,64.78
2019-02-19T04:39:30.843Z,64.78
2019-02-19T04:40:30.802Z,64.17
2019-02-19T04:41:30.785Z,64.27
2019-02-19T04:42:30.772Z,63.85
2019-02-19T04:43:30.774Z,64.68
2019-02-19T04:44:30.794Z,64.27
2019-02-19T04:45:30.757Z,64.37
2019-02-19T04:46:31.791Z,64.48
2019-02-19T04:47:30.723Z,64.09
2019-02-19T04:48:30.716Z,64.37
2019-02-19T04:49:30.755Z,64.37
2019-02-19T04:50:30.698Z,63.85
2019-02-19T04:51:30.671Z,63.65
2019-02-19T04:52:30.659Z,63.65
2019-02-19T04:53:30.650Z,64.58
2019-02-19T04:54:30.661Z,64.99
2019-02-19T04:55:30.714Z,63.65
2019-02-19T04:56:30.614Z,64.27
2019-02-19T04:57:30.612Z,64.48
2019-02-19T04:58:30.597Z,64.68
2019-02-19T04:59:30.671Z,64.61
2019-02-19T05:00:30.573Z,64.92
2019-02-19T05:01:30.567Z,64.81
2019-02-19T05:02:30.574Z,64.71
2019-02-19T05:03:30.538Z,65.02
2019-02-19T05:04:30.535Z,64.71
2019-02-19T05:05:30.563Z,65.02
2019-02-19T05:06:30.512Z,64.92
2019-02-19T05:07:30.558Z,64.92
2019-02-19T05:08:30.495Z,64.92
2019-02-19T05:09:30.493Z,65.02
2019-02-19T05:10:30.514Z,65.12
2019-02-19T05:11:30.477Z,65.02
2019-02-19T05:12:30.494Z,65.33
2019-02-19T05:13:30.439Z,65.12
2019-02-19T05:14:30.424Z,65.23
2019-02-19T05:15:30.491Z,65.54
2019-02-19T05:16:30.402Z,65.23
2019-02-19T05:17:30.393Z,65.33
2019-02-19T05:18:30.404Z,65.44
2019-02-19T05:19:30.417Z,65.23
2019-02-19T05:20:30.373Z,65.12
2019-02-19T05:21:30.363Z,65.75
2019-02-19T05:22:30.382Z,65.02
2019-02-19T05:23:30.359Z,65.33
2019-02-19T05:24:30.315Z,65.75
2019-02-19T05:25:30.303Z,64.92
2019-02-19T05:26:30.293Z,64.92
2019-02-19T05:27:30.363Z,65.12
2019-02-19T05:28:30.309Z,65.75
2019-02-19T05:29:30.259Z,65.12
2019-02-19T05:30:30.253Z,65.12
2019-02-19T05:31:30.280Z,65.23
2019-02-19T05:32:30.243Z,65.23
2019-02-19T05:33:30.283Z,64.81
2019-02-19T05:34:30.220Z,65.75
2019-02-19T05:35:30.195Z,65.02
2019-02-19T05:36:30.246Z,64.81
2019-02-19T05:37:30.179Z,65.02
2019-02-19T05:38:30.159Z,65.54
2019-02-19T05:39:30.147Z,64.92
2019-02-19T05:40:30.195Z,65.75
2019-02-19T05:41:30.127Z,65.33
2019-02-19T05:42:30.135Z,65.54
2019-02-19T05:43:30.146Z,65.54
2019-02-19T05:44:30.112Z,65.44
2019-02-19T05:45:30.085Z,65.47
2019-02-19T05:46:30.123Z,65.78
2019-02-19T05:47:30.067Z,65.47
2019-02-19T05:48:30.079Z,65.78
2019-02-19T05:49:30.070Z,65.64
2019-02-19T05:50:30.070Z,65.44
2019-02-19T05:51:30.072Z,65.54
2019-02-19T05:52:30.053Z,65.64
2019-02-19T05:53:29.999Z,65.57
2019-02-19T05:54:29.995Z,65.78
2019-02-19T05:55:29.977Z,66.36
2019-02-19T05:56:29.967Z,66.29
2019-02-19T05:57:30.012Z,65.85
2019-02-19T05:58:29.989Z,66.50
2019-02-19T05:59:29.934Z,65.88
2019-02-19T06:00:29.927Z,65.99
2019-02-19T06:01:29.915Z,66.29
2019-02-19T06:02:29.950Z,66.50
2019-02-19T06:03:29.900Z,66.19
2019-02-19T06:04:29.884Z,66.81
2019-02-19T06:05:29.863Z,66.71
2019-02-19T06:06:29.916Z,66.60
2019-02-19T06:07:29.844Z,67.12
2019-02-19T06:08:29.840Z,66.91
2019-02-19T06:09:29.829Z,66.71
2019-02-19T06:10:29.809Z,66.81
2019-02-19T06:11:29.802Z,66.88
2019-02-19T06:12:29.830Z,66.39
2019-02-19T06:13:29.825Z,66.71
2019-02-19T06:14:29.776Z,67.02
2019-02-19T06:15:29.769Z,66.67
2019-02-19T06:16:29.746Z,66.26
2019-02-19T06:17:29.749Z,66.39
2019-02-19T06:18:29.798Z,66.26
2019-02-19T06:19:29.711Z,66.06
2019-02-19T06:20:29.780Z,65.95
2019-02-19T06:21:29.699Z,65.95
2019-02-19T06:22:29.692Z,65.75
2019-02-19T06:23:29.757Z,66.06
2019-02-19T06:24:29.663Z,65.44
2019-02-19T06:25:29.646Z,65.44
2019-02-19T06:26:29.633Z,65.95
2019-02-19T06:27:29.633Z,65.33
2019-02-19T06:28:29.622Z,65.33
2019-02-19T06:29:29.649Z,65.85
2019-02-19T06:30:29.652Z,65.54
2019-02-19T06:31:29.579Z,65.64
2019-02-19T06:32:29.567Z,65.44
2019-02-19T06:33:29.567Z,65.75
2019-02-19T06:34:29.553Z,65.54
2019-02-19T06:35:29.581Z,65.54
2019-02-19T06:36:29.564Z,65.33
2019-02-19T06:37:29.521Z,65.44
2019-02-19T06:38:29.501Z,65.33
2019-02-19T06:39:29.546Z,65.64
2019-02-19T06:40:29.497Z,65.64
2019-02-19T06:41:29.528Z,66.16
2019-02-19T06:42:30.405Z,65.95
2019-02-19T06:43:29.452Z,65.33
2019-02-19T06:44:29.438Z,65.54
2019-02-19T06:45:29.429Z,66.03
2019-02-19T06:46:29.424Z,65.61
2019-02-19T06:47:29.446Z,65.61
2019-02-19T06:48:29.391Z,65.02
2019-02-19T06:49:29.391Z,65.54
2019-02-19T06:50:29.412Z,65.54
2019-02-19T06:51:29.389Z,65.44
2019-02-19T06:52:29.395Z,65.75
2019-02-19T06:53:29.351Z,65.64
2019-02-19T06:54:29.339Z,65.64
2019-02-19T06:55:29.325Z,65.51
2019-02-19T06:56:29.368Z,65.41
2019-02-19T06:57:29.346Z,65.61
2019-02-19T06:58:29.311Z,64.89
2019-02-19T06:59:29.276Z,65.51
2019-02-19T07:00:29.311Z,65.61
2019-02-19T07:01:29.306Z,65.20
2019-02-19T07:02:29.266Z,65.09
2019-02-19T07:03:29.225Z,64.99
2019-02-19T07:04:29.218Z,64.99
2019-02-19T07:05:29.205Z,64.99
2019-02-19T07:06:30.643Z,65.30
2019-02-19T07:07:29.283Z,65.17
2019-02-19T07:08:29.275Z,65.09
2019-02-19T07:09:29.180Z,65.20
2019-02-19T07:10:29.158Z,64.68
2019-02-19T07:11:29.140Z,65.61
2019-02-19T07:12:29.132Z,65.61
2019-02-19T07:13:29.121Z,65.20
2019-02-19T07:14:29.158Z,65.82
2019-02-19T07:15:29.102Z,65.61
2019-02-19T07:16:29.087Z,64.96
2019-02-19T07:17:29.078Z,64.89
2019-02-19T07:18:29.061Z,64.89
2019-02-19T07:19:29.058Z,65.92
2019-02-19T07:20:29.121Z,65.06
2019-02-19T07:21:29.034Z,64.96
2019-02-19T07:22:29.022Z,64.86
2019-02-19T07:23:29.012Z,65.17
2019-02-19T07:24:29.043Z,65.27
2019-02-19T07:25:28.996Z,65.27
2019-02-19T07:26:28.982Z,65.27
2019-02-19T07:27:28.965Z,65.27
2019-02-19T07:28:28.985Z,65.37
2019-02-19T07:29:29.444Z,65.27
2019-02-19T07:30:28.928Z,65.37
2019-02-19T07:31:28.918Z,65.27
2019-02-19T07:32:28.930Z,65.34
2019-02-19T07:33:28.933Z,64.96
2019-02-19T07:34:28.925Z,64.86
2019-02-19T07:35:28.914Z,64.93
2019-02-19T07:36:28.894Z,64.93
2019-02-19T07:37:28.875Z,64.93
2019-02-19T07:38:28.843Z,64.62
2019-02-19T07:39:28.835Z,64.83
2019-02-19T07:40:28.873Z,64.93
2019-02-19T07:41:28.811Z,64.42
2019-02-19T07:42:28.827Z,64.83
2019-02-19T07:43:28.785Z,64.80
2019-02-19T07:44:28.779Z,64.62
2019-02-19T07:45:28.774Z,64.42
2019-02-19T07:46:28.885Z,64.18
2019-02-19T07:47:28.750Z,64.07
2019-02-19T07:48:28.802Z,64.07
2019-02-19T07:49:28.725Z,64.28
2019-02-19T07:50:28.707Z,63.77
2019-02-19T07:51:28.695Z,63.77
2019-02-19T07:52:28.742Z,64.15
2019-02-19T07:53:28.700Z,64.15
2019-02-19T07:54:28.670Z,63.74
2019-02-19T07:55:28.664Z,64.36
2019-02-19T07:56:28.687Z,63.95
2019-02-19T07:57:28.634Z,64.25
2019-02-19T07:58:28.619Z,63.43
2019-02-19T07:59:28.616Z,64.02
2019-02-19T08:00:28.606Z,63.64
2019-02-19T08:01:28.614Z,63.43
2019-02-19T08:02:28.625Z,63.60
2019-02-19T08:03:28.568Z,63.50
2019-02-19T08:04:28.553Z,63.60
2019-02-19T08:05:28.560Z,63.74
2019-02-19T08:06:28.534Z,63.60
2019-02-19T08:07:28.573Z,63.71
2019-02-19T08:08:28.508Z,63.50
2019-02-19T08:09:28.522Z,63.50
2019-02-19T08:10:28.487Z,63.60
2019-02-19T08:11:28.475Z,63.68
2019-02-19T08:12:28.466Z,63.60
2019-02-19T08:13:28.497Z,63.57
2019-02-19T08:14:28.664Z,63.37
2019-02-19T08:15:28.432Z,63.47
2019-02-19T08:16:28.424Z,63.17
2019-02-19T08:17:33.394Z,63.37
2019-02-19T08:18:29.484Z,63.47
2019-02-19T08:19:28.458Z,62.85
2019-02-19T08:20:28.408Z,63.03
2019-02-19T08:21:28.371Z,63.06
2019-02-19T08:22:28.369Z,62.72
2019-02-19T08:23:29.900Z,63.45
2019-02-19T08:24:28.360Z,62.82
2019-02-19T08:25:28.332Z,62.52
2019-02-19T08:26:28.322Z,62.38
2019-02-19T08:27:28.301Z,62.49
2019-02-19T08:28:28.305Z,62.49
2019-02-19T08:29:28.335Z,62.59
2019-02-19T08:30:28.283Z,62.49
2019-02-19T08:31:28.268Z,62.66
2019-02-19T08:32:28.259Z,62.66
2019-02-19T08:33:28.282Z,61.43
2019-02-19T08:34:28.279Z,61.33
2019-02-19T08:35:28.218Z,61.94
2019-02-19T08:36:29.670Z,61.63
2019-02-19T08:37:28.200Z,61.74
2019-02-19T08:38:28.181Z,61.12
2019-02-19T08:39:28.211Z,61.91
2019-02-19T08:40:28.204Z,61.19
2019-02-19T08:41:28.149Z,61.40
2019-02-19T08:42:28.157Z,60.91
2019-02-19T08:43:28.130Z,61.09
2019-02-19T08:44:28.173Z,60.99
2019-02-19T08:45:28.107Z,60.96
2019-02-19T08:46:28.097Z,60.89
2019-02-19T08:47:28.080Z,60.96
2019-02-19T08:48:28.076Z,60.45
2019-02-19T08:49:28.061Z,60.86
2019-02-19T08:50:28.092Z,60.96
2019-02-19T08:51:28.034Z,60.55
2019-02-19T08:52:28.054Z,61.07
2019-02-19T08:53:28.012Z,60.86
2019-02-19T08:54:28.020Z,61.07
2019-02-19T08:55:28.056Z,60.83
2019-02-19T08:56:27.995Z,60.75
2019-02-19T08:57:27.972Z,60.86
2019-02-19T08:58:27.968Z,60.45
2019-02-19T08:59:27.959Z,60.45
2019-02-19T09:00:27.963Z,60.96
2019-02-19T09:01:28.067Z,60.83
2019-02-19T09:02:28.621Z,60.63
2019-02-19T09:03:27.965Z,60.73
2019-02-19T09:04:27.919Z,60.83
2019-02-19T09:05:27.899Z,61.14
2019-02-19T09:06:27.940Z,60.83
2019-02-19T09:07:27.865Z,60.60
2019-02-19T09:08:27.876Z,60.60
2019-02-19T09:09:27.887Z,60.49
2019-02-19T09:10:27.842Z,60.39
2019-02-19T09:11:27.815Z,60.49
2019-02-19T09:12:27.851Z,60.16
2019-02-19T09:13:27.800Z,60.16
2019-02-19T09:14:27.812Z,60.16
2019-02-19T09:15:27.783Z,60.26
2019-02-19T09:16:27.762Z,60.16
2019-02-19T09:17:27.806Z,60.05
2019-02-19T09:18:27.743Z,60.57
2019-02-19T09:19:27.735Z,60.57
2019-02-19T09:20:27.738Z,60.67
2019-02-19T09:21:27.709Z,60.36
2019-02-19T09:22:27.699Z,60.57
2019-02-19T09:23:27.758Z,60.57
2019-02-19T09:24:27.680Z,60.88
2019-02-19T09:25:27.675Z,60.88
2019-02-19T09:26:27.659Z,60.88
2019-02-19T09:27:27.692Z,60.57
2019-02-19T09:28:27.636Z,60.67
2019-02-19T09:29:27.624Z,60.88
2019-02-19T09:30:27.613Z,60.98
2019-02-19T09:31:27.615Z,61.18
2019-02-19T09:32:27.590Z,61.39
2019-02-19T09:33:27.633Z,61.80
2019-02-19T09:34:27.562Z,61.39
2019-02-19T09:35:27.553Z,61.49
2019-02-19T09:36:27.544Z,61.70
2019-02-19T09:37:27.532Z,61.60
2019-02-19T09:38:27.519Z,61.29
2019-02-19T09:39:27.571Z,61.39
2019-02-19T09:40:27.534Z,61.49
2019-02-19T09:41:27.507Z,61.18
2019-02-19T09:42:27.489Z,61.39
2019-02-19T09:43:35.292Z,61.26
2019-02-19T09:44:28.495Z,61.29
2019-02-19T09:45:27.487Z,61.67
2019-02-19T09:46:27.485Z,61.49
2019-02-19T09:47:27.442Z,61.60
2019-02-19T09:48:27.414Z,61.70
2019-02-19T09:49:27.399Z,61.49
2019-02-19T09:50:27.446Z,61.60
2019-02-19T09:51:27.376Z,61.70
2019-02-19T09:52:27.365Z,62.01
2019-02-19T09:53:27.356Z,61.70
2019-02-19T09:54:27.351Z,61.80
2019-02-19T09:55:27.404Z,61.60
2019-02-19T09:56:27.327Z,61.49
2019-02-19T09:57:27.314Z,61.90
2019-02-19T09:58:27.305Z,62.31
2019-02-19T09:59:27.315Z,62.11
2019-02-19T10:00:27.285Z,62.73
2019-02-19T10:01:28.379Z,63.03
2019-02-19T10:02:27.263Z,63.44
2019-02-19T10:03:27.270Z,63.34
2019-02-19T10:04:27.247Z,63.13
2019-02-19T10:05:27.236Z,63.34
2019-02-19T10:06:27.252Z,63.85
2019-02-19T10:07:27.247Z,64.06
2019-02-19T10:08:27.206Z,63.78
2019-02-19T10:09:27.177Z,63.34
2019-02-19T10:10:27.168Z,63.65
2019-02-19T10:11:27.170Z,63.34
2019-02-19T10:12:27.198Z,62.41
2019-02-19T10:13:27.164Z,63.54
2019-02-19T10:14:27.141Z,63.34
2019-02-19T10:15:27.176Z,62.62
2019-02-19T10:16:27.113Z,63.34
2019-02-19T10:17:27.154Z,63.54
2019-02-19T10:18:27.088Z,63.54
2019-02-19T10:19:27.074Z,63.24
2019-02-19T10:20:27.091Z,63.85
2019-02-19T10:21:27.063Z,63.54
2019-02-19T10:22:27.040Z,63.68
2019-02-19T10:23:27.090Z,63.68
2019-02-19T10:24:27.029Z,63.47
2019-02-19T10:25:27.052Z,63.27
2019-02-19T10:26:26.999Z,63.37
2019-02-19T10:27:27.073Z,63.78
2019-02-19T10:28:26.989Z,64.09
2019-02-19T10:29:26.964Z,64.40
2019-02-19T10:30:26.967Z,64.91
2019-02-19T10:31:26.950Z,64.26
2019-02-19T10:32:26.959Z,63.24
2019-02-19T10:33:26.957Z,64.26
2019-02-19T10:34:26.958Z,63.31
2019-02-19T10:35:26.901Z,63.82
2019-02-19T10:36:26.904Z,64.13
2019-02-19T10:37:26.885Z,64.03
2019-02-19T10:38:26.862Z,64.03
2019-02-19T10:39:26.880Z,64.13
2019-02-19T10:40:26.905Z,64.13
2019-02-19T10:41:26.841Z,64.44
2019-02-19T10:42:26.820Z,64.78
2019-02-19T10:43:26.806Z,65.09
2019-02-19T10:44:26.864Z,65.09
2019-02-19T10:45:27.843Z,64.98
2019-02-19T10:46:26.777Z,65.50
2019-02-19T10:47:26.770Z,65.50
2019-02-19T10:48:26.787Z,65.60
2019-02-19T10:49:26.756Z,65.39
2019-02-19T10:50:26.747Z,65.60
2019-02-19T10:51:26.797Z,65.60
2019-02-19T10:52:26.720Z,66.22
2019-02-19T10:53:26.701Z,66.42
2019-02-19T10:54:26.695Z,65.80
2019-02-19T10:55:26.688Z,65.70
2019-02-19T10:56:26.720Z,65.70
2019-02-19T10:57:26.652Z,65.39
2019-02-19T10:58:26.653Z,65.09
2019-02-19T10:59:26.646Z,64.98
2019-02-19T11:00:26.620Z,64.98
2019-02-19T11:01:26.657Z,65.09
2019-02-19T11:02:26.620Z,65.06
2019-02-19T11:03:26.588Z,65.06
2019-02-19T11:04:26.592Z,65.19
2019-02-19T11:05:26.599Z,65.26
2019-02-19T11:06:26.604Z,65.16
2019-02-19T11:07:26.555Z,64.47
2019-02-19T11:08:26.553Z,65.16
2019-02-19T11:09:26.523Z,65.16
2019-02-19T11:10:26.520Z,64.44
2019-02-19T11:11:26.556Z,65.06
2019-02-19T11:12:26.519Z,64.85
2019-02-19T11:13:26.537Z,64.75
2019-02-19T11:14:26.465Z,64.54
2019-02-19T11:15:26.456Z,64.95
2019-02-19T11:16:26.456Z,64.95
2019-02-19T11:17:26.480Z,64.85
2019-02-19T11:18:28.693Z,64.85
2019-02-19T11:19:26.413Z,64.88
2019-02-19T11:20:26.406Z,64.75
2019-02-19T11:21:26.396Z,65.06
2019-02-19T11:22:26.432Z,64.95
2019-02-19T11:23:26.404Z,64.51
2019-02-19T11:24:26.363Z,64.20
2019-02-19T11:25:26.345Z,64.64
2019-02-19T11:26:26.338Z,64.31
2019-02-19T11:27:26.329Z,64.00
2019-02-19T11:28:26.357Z,64.10
2019-02-19T11:29:26.304Z,64.00
2019-02-19T11:30:26.290Z,64.10
2019-02-19T11:31:26.281Z,64.41
2019-02-19T11:32:26.449Z,64.10
2019-02-19T11:33:26.292Z,64.00
2019-02-19T11:34:26.251Z,63.79
2019-02-19T11:35:26.261Z,63.39
2019-02-19T11:36:26.223Z,63.79
2019-02-19T11:37:26.209Z,63.59
2019-02-19T11:38:26.271Z,63.39
2019-02-19T11:39:26.207Z,63.79
2019-02-19T11:40:26.195Z,63.39
2019-02-19T11:41:26.165Z,63.79
2019-02-19T11:42:26.154Z,64.10
2019-02-19T11:43:26.155Z,63.07
2019-02-19T11:44:26.214Z,63.39
2019-02-19T11:45:26.138Z,64.31
2019-02-19T11:46:26.114Z,63.79
2019-02-19T11:47:26.720Z,63.79
2019-02-19T11:48:26.098Z,63.66
2019-02-19T11:49:26.132Z,63.76
2019-02-19T11:50:26.085Z,64.10
2019-02-19T11:51:26.059Z,63.59
2019-02-19T11:52:26.048Z,63.69
2019-02-19T11:53:26.037Z,63.18
2019-02-19T11:54:26.085Z,64.00
2019-02-19T11:55:26.021Z,64.31
2019-02-19T11:56:26.004Z,64.31
2019-02-19T11:57:25.988Z,64.31
2019-02-19T11:58:26.009Z,64.75
2019-02-19T11:59:25.987Z,64.72
2019-02-19T12:00:26.010Z,64.92
2019-02-19T12:01:26.025Z,64.20
2019-02-19T12:02:32.778Z,64.41
2019-02-19T12:03:26.925Z,64.10
2019-02-19T12:04:25.924Z,64.41
2019-02-19T12:05:25.954Z,64.31
2019-02-19T12:06:25.891Z,64.51
2019-02-19T12:07:25.900Z,64.20
2019-02-19T12:08:25.867Z,64.41
2019-02-19T12:09:25.866Z,64.41
2019-02-19T12:10:25.946Z,64.20
2019-02-19T12:11:25.866Z,63.90
2019-02-19T12:12:25.849Z,64.00
2019-02-19T12:13:25.818Z,63.25
2019-02-19T12:14:25.852Z,63.97
2019-02-19T12:15:34.726Z,63.66
2019-02-19T12:16:26.838Z,63.15
2019-02-19T12:17:25.792Z,63.43
2019-02-19T12:18:25.783Z,63.53
2019-02-19T12:19:25.747Z,63.32
2019-02-19T12:20:25.743Z,63.22
2019-02-19T12:21:25.832Z,63.22
2019-02-19T12:22:25.717Z,63.32
2019-02-19T12:23:25.707Z,63.12
2019-02-19T12:24:25.722Z,63.22
2019-02-19T12:25:25.693Z,63.22
2019-02-19T12:26:25.686Z,63.35
2019-02-19T12:27:25.764Z,63.22
2019-02-19T12:28:25.646Z,63.22
2019-02-19T12:29:25.633Z,63.35
2019-02-19T12:30:25.650Z,63.15
2019-02-19T12:31:25.613Z,63.97
2019-02-19T12:32:25.602Z,63.76
2019-02-19T12:33:25.669Z,63.56
2019-02-19T12:34:25.651Z,63.76
2019-02-19T12:35:25.592Z,63.35
2019-02-19T12:36:25.569Z,63.76
2019-02-19T12:37:25.610Z,63.97
2019-02-19T12:38:25.553Z,64.17
2019-02-19T12:39:25.552Z,63.66
2019-02-19T12:40:25.518Z,64.28
2019-02-19T12:41:25.512Z,63.56
2019-02-19T12:42:25.555Z,63.56
2019-02-19T12:43:25.481Z,63.35
2019-02-19T12:44:25.566Z,63.05
2019-02-19T12:45:25.461Z,63.73
2019-02-19T12:46:25.452Z,63.12
2019-02-19T12:47:25.439Z,63.22
2019-02-19T12:48:25.470Z,63.22
2019-02-19T12:49:25.417Z,63.32
2019-02-19T12:50:25.408Z,63.32
2019-02-19T12:51:26.748Z,63.46
2019-02-19T12:52:25.416Z,63.25